Dillon, CO

1:11 PM MDT on August 23, 2014 (GMT -0600)
Last Chance | Change Station
CLOSE
Current Station
Personal Weather Station
Location: Keystone, CO
Elevation: 9262 ft
Nearby Weather Stations

Elev 9262 ft 39.60 °N, 105.98 °W | Updated 34 seconds ago

Mostly Cloudy
Mostly Cloudy
59.4 °F
Feels Like 59.4 °F
N
4.0
Wind Variable Wind from SSW
Gusts 10.0 mph

Today
High -- | Low -- °F
--% Chance of Precip.
Yesterday
High -- | Low -- °F
Precip. -- in
6:23 AM 7:48 PM
Waning Crescent, 3% visible
Pressure 29.80 in
Visibility 10.0 miles
Clouds Mostly Cloudy 4300 ft
Dew Point 45 °F
Humidity 58%
Rainfall 0.01 in
Snow Depth 0 in , 0 in , 0 in
UV 6 out of 12
Pollen 9.20 out of 12
Air Quality Not available.
Flu Activity Not available.
METAR KLXV 231853Z AUTO 31008KT 10SM BKN043 13/04 A3024 RMK AO2 RAB11E20 SLP089 P0000 T01280039

More Conditions Fewer Conditions

Pressure 29.80 in
Visibility 10.0 miles
Clouds Mostly Cloudy 4300 ft
Dew Point 45 °F
Humidity 58%
Rainfall 0.01 in
Snow Depth 0 in , 0 in , 0 in
UV 6 out of 12
Pollen 9.20 out of 12
Air Quality Not available.
Flu Activity Not available.
METAR KLXV 231853Z AUTO 31008KT 10SM BKN043 13/04 A3024 RMK AO2 RAB11E20 SLP089 P0000 T01280039

More Conditions Fewer Conditions

Nowcast | as of 12:30 PM MDT on August 23, 2014

Scattered showers and a few thunderstorms will continue move into the northern Colorado mountains from the west through the afternoon. Brief heavy rain and wind gusts to 35 mph are possible with some of the showers.

×

10-Day Weather Forecast

Almanac

Astronomy

Aug. 23, 2014 Rise Set
Actual Time 6:23 AM MDT 7:48 PM MDT
Civil Twilight 5:55 AM MDT 8:16 PM MDT
Nautical Twilight 5:21 AM MDT 8:50 PM MDT
Astronomical Twilight 4:46 AM MDT 9:25 PM MDT
Moon 4:42 AM MDT 6:34 PM MDT
Length of Visible Light 14h 20m
Length of Day
13h 24m
Tomorrow will be 2m 23s shorter.
Waning Crescent, 3% of the Moon is Illuminated
Today
Waning Crescent
Aug 25
New
Sep 2
First Quarter
Sep 8
Full
Sep 15
Last Quarter

Today's Extremes

State Highs State Lows

Community

WunderPhotos

Upload Photos

1,746,585 photos uploaded!

WunderBlogs® & News

Nearby

Snow Depth

Station Depth Elevation
Michigan Creek 0 in 10600 ft
Jackwhacker Gulch 0 in 10960 ft
Summit Ranch 0 in 9400 ft
Jones Pass 0 in 10400 ft
Fremont Pass 177 in 11400 ft

Earthquake Activity

City Distance Mag. Time & Date
No recent earthquake activity has been reported nearby.
Minimum magnitude displayed is 2.5.

Coastal Water Temperatures

Place Temperature
No Stations Reporting

Nearby Weather Stations